MBW weather

Melbourne Moorabbin Airport
Melbourne, Victoria, Australia

Public forecast

Using degrees Celsius for public forecast. Weather courtesy of forecast.io.

METAR (pilot weather report)

Closest report is Melbourne Essendon Airport, 17.6 nm (32.7 km) NNW. Retrieved 2018/09/23 22:00 UTC (18 minutes ago):

YMEN 232200Z AUTO 17008KT 9999 // NCD 10/02 Q1031

TAF (pilot weather forecast)

Closest forecast is Melbourne International Airport, 21.9 nm (40.6 km) NW. Retrieved 2018/09/23 18:00 UTC (4 hours ago):

TAF YMML 231705Z 2318/2424 16010KT 9999 SCT040 FM240500 19015KT 9999 SCT045 FM241000 19008KT CAVOK